Time;durP1;ratioP1;P1;durP2;ratioP2;P2;SDS_P1;SDS_P2;PMS_P1;PMS_P2;Temp;Humidity;BMP_temperature;BMP_pressure;BME280_temperature;BME280_humidity;BME280_pressure;Samples;Min_cycle;Max_cycle;Signal;HPM_P1;HPM_P2
2022/11/21 00:00:14;;;;;;;;;;;;;;;17.21;49.64;100054.27;102066;1333;61385;-83
2022/11/21 00:02:39;;;;;;;;;;;;;;;17.21;49.71;100052.70;102070;1328;61299;-84
2022/11/21 00:05:07;;;;;;;;;;;;;;;17.21;49.80;100048.08;102098;1325;61427;-84
2022/11/21 00:07:33;;;;;;;;;;;;;;;17.21;49.65;100033.31;102079;1326;61316;-84
2022/11/21 00:10:21;;;;;;;;;;;;;;;17.20;49.67;100024.27;102063;1325;61344;-83
2022/11/21 00:12:51;;;;;;;;;;;;;;;17.20;49.71;100012.00;101806;1337;73572;-84
2022/11/21 00:15:19;;;;;;;;;;;;;;;17.20;49.78;100007.39;101760;1331;76178;-84
2022/11/21 00:17:44;;;;;;;;;;;;;;;17.20;49.67;100010.05;101775;1332;61225;-85
2022/11/21 00:20:10;;;;;;;;;;;;;;;17.20;49.76;100007.94;101795;1332;61345;-85
2022/11/21 00:22:36;;;;;;;;;;;;;;;17.20;49.68;99995.48;101793;1332;61356;-85
2022/11/21 00:25:01;;;;;;;;;;;;;;;17.20;49.68;100001.52;101815;1331;61359;-83
2022/11/21 00:27:27;;;;;;;;;;;;;;;17.19;49.73;100011.52;101790;1338;59388;-84
2022/11/21 00:29:52;;;;;;;;;;;;;;;17.19;49.68;100012.98;101824;1334;61306;-84
2022/11/21 00:32:18;;;;;;;;;;;;;;;17.19;49.76;100020.44;101800;1338;61274;-84
2022/11/21 00:34:43;;;;;;;;;;;;;;;17.19;49.67;100025.22;101748;1332;61365;-83
2022/11/21 00:37:08;;;;;;;;;;;;;;;17.19;49.67;100024.52;101732;1335;62518;-84
2022/11/21 00:39:34;;;;;;;;;;;;;;;17.19;49.74;100018.68;101835;1332;61317;-84
2022/11/21 00:41:59;;;;;;;;;;;;;;;17.19;49.69;99990.91;101796;1332;61132;-85
2022/11/21 00:44:25;;;;;;;;;;;;;;;17.19;49.79;99972.42;101770;1333;61345;-84
2022/11/21 00:46:50;;;;;;;;;;;;;;;17.19;49.75;99962.48;101750;1334;61354;-84
2022/11/21 00:49:15;;;;;;;;;;;;;;;17.18;49.67;99940.12;101809;1333;61345;-84
2022/11/21 00:51:43;;;;;;;;;;;;;;;17.18;49.68;99932.52;102126;1329;61350;-84
2022/11/21 00:54:08;;;;;;;;;;;;;;;17.18;49.61;99926.82;102069;1333;61201;-84
2022/11/21 00:56:34;;;;;;;;;;;;;;;17.18;49.65;99919.18;102087;1325;61334;-84
2022/11/21 00:58:59;;;;;;;;;;;;;;;17.17;49.72;99910.32;102069;1326;61477;-84
2022/11/21 01:01:26;;;;;;;;;;;;;;;17.17;49.60;99905.52;102050;1329;61392;-84
2022/11/21 01:03:51;;;;;;;;;;;;;;;17.17;49.65;99886.52;102060;1332;61329;-84
2022/11/21 01:06:17;;;;;;;;;;;;;;;17.17;49.71;99876.58;102158;1325;61361;-83
2022/11/21 01:08:42;;;;;;;;;;;;;;;17.17;49.69;99871.06;102085;1322;63078;-83
2022/11/21 01:11:09;;;;;;;;;;;;;;;17.16;49.72;99854.20;102119;1325;61296;-84
2022/11/21 01:13:34;;;;;;;;;;;;;;;17.16;49.75;99843.90;102078;1326;61429;-84
2022/11/21 01:16:16;;;;;;;;;;;;;;;17.15;49.59;99849.64;102057;1325;61384;-85
2022/11/21 01:18:42;;;;;;;;;;;;;;;17.16;49.80;99850.14;102104;1319;61386;-84
2022/11/21 01:21:11;;;;;;;;;;;;;;;17.15;49.67;99854.61;102056;1329;61342;-85
2022/11/21 01:23:36;;;;;;;;;;;;;;;17.16;49.69;99864.38;102076;1332;74532;-85
2022/11/21 01:26:03;;;;;;;;;;;;;;;17.15;49.74;99840.92;102089;1329;61410;-84
2022/11/21 01:28:28;;;;;;;;;;;;;;;17.16;49.73;99844.27;102092;1326;61312;-85
2022/11/21 01:30:53;;;;;;;;;;;;;;;17.15;49.76;99847.14;102055;1328;61305;-85
2022/11/21 01:33:19;;;;;;;;;;;;;;;17.15;49.76;99861.37;102108;1326;60016;-85
2022/11/21 01:35:44;;;;;;;;;;;;;;;17.16;49.75;99879.85;102064;1324;74389;-85
2022/11/21 01:38:09;;;;;;;;;;;;;;;17.15;49.69;99877.38;102095;1325;61325;-85
2022/11/21 01:40:38;;;;;;;;;;;;;;;17.15;49.63;99889.66;102084;1322;59353;-84
2022/11/21 01:43:11;;;;;;;;;;;;;;;17.15;49.79;99915.78;102096;1329;73809;-83
2022/11/21 01:45:51;;;;;;;;;;;;;;;17.15;49.79;99953.31;102140;1325;74787;-85
2022/11/21 01:48:17;;;;;;;;;;;;;;;17.15;49.80;99990.30;102161;1325;61199;-84
2022/11/21 01:50:42;;;;;;;;;;;;;;;17.16;49.70;99988.84;102211;1326;59899;-84
2022/11/21 01:53:07;;;;;;;;;;;;;;;17.16;49.75;99947.94;102069;1325;61853;-83
2022/11/21 01:55:33;;;;;;;;;;;;;;;17.16;49.80;99913.63;102064;1326;61329;-84
2022/11/21 01:58:03;;;;;;;;;;;;;;;17.16;49.79;99910.77;102094;1328;61304;-85
2022/11/21 02:00:30;;;;;;;;;;;;;;;17.15;49.73;99880.77;102108;1322;61321;-84
2022/11/21 02:02:58;;;;;;;;;;;;;;;17.15;49.70;99851.10;102133;1325;61076;-85
2022/11/21 02:05:30;;;;;;;;;;;;;;;17.15;49.76;99831.20;102070;1328;72629;-85
2022/11/21 02:08:19;;;;;;;;;;;;;;;17.14;49.67;99831.95;102138;1326;74397;-84
2022/11/21 02:10:47;;;;;;;;;;;;;;;17.14;49.80;99826.62;101839;1333;61150;-83
2022/11/21 02:13:12;;;;;;;;;;;;;;;17.15;49.75;99828.73;101792;1334;61242;-84
2022/11/21 02:15:38;;;;;;;;;;;;;;;17.14;49.79;99828.77;101782;1338;61477;-84
2022/11/21 02:18:05;;;;;;;;;;;;;;;17.14;49.81;99833.20;101742;1334;61330;-84
2022/11/21 02:20:33;;;;;;;;;;;;;;;17.13;49.70;99827.02;101861;1339;61203;-85
2022/11/21 02:23:13;;;;;;;;;;;;;;;17.14;49.66;99806.92;101760;1332;61161;-86
2022/11/21 02:25:40;;;;;;;;;;;;;;;17.14;49.76;99798.56;101742;1331;72488;-85
2022/11/21 02:28:06;;;;;;;;;;;;;;;17.13;49.80;99791.84;101746;1335;74649;-84
2022/11/21 02:30:33;;;;;;;;;;;;;;;17.14;49.75;99797.86;101785;1334;59955;-85
2022/11/21 02:33:00;;;;;;;;;;;;;;;17.13;49.82;99797.73;101872;1331;61357;-85
2022/11/21 02:35:25;;;;;;;;;;;;;;;17.13;49.77;99783.30;101791;1337;61341;-85
2022/11/21 02:37:53;;;;;;;;;;;;;;;17.13;49.68;99766.09;101750;1338;61375;-84
2022/11/21 02:40:20;;;;;;;;;;;;;;;17.12;49.69;99752.95;101779;1331;59815;-84
2022/11/21 02:42:56;;;;;;;;;;;;;;;17.12;49.75;99759.56;101789;1334;61710;-84
2022/11/21 02:45:29;;;;;;;;;;;;;;;17.12;49.66;99768.10;101823;1334;73657;-83
2022/11/21 02:47:55;;;;;;;;;;;;;;;17.12;49.68;99769.53;101894;1332;75489;-84
2022/11/21 02:50:23;;;;;;;;;;;;;;;17.12;49.69;99766.51;102059;1328;61392;-83
2022/11/21 02:52:49;;;;;;;;;;;;;;;17.12;49.62;99762.23;102110;1325;61048;-84
2022/11/21 02:55:14;;;;;;;;;;;;;;;17.12;49.68;99756.75;102095;1326;61334;-84
2022/11/21 02:57:40;;;;;;;;;;;;;;;17.12;49.71;99749.65;102063;1328;61356;-84
2022/11/21 03:00:06;;;;;;;;;;;;;;;17.11;49.67;99737.23;102104;1325;61498;-86
2022/11/21 03:02:32;;;;;;;;;;;;;;;17.10;49.56;99737.45;102094;1328;61707;-84
2022/11/21 03:05:21;;;;;;;;;;;;;;;17.11;49.67;99718.42;102082;1328;61342;-84
2022/11/21 03:07:46;;;;;;;;;;;;;;;17.10;49.61;99701.20;101720;1334;72517;-84
2022/11/21 03:10:15;;;;;;;;;;;;;;;17.10;49.73;99702.11;101776;1335;62520;-84
2022/11/21 03:12:41;;;;;;;;;;;;;;;17.10;49.67;99696.94;101836;1332;60036;-84
2022/11/21 03:15:09;;;;;;;;;;;;;;;17.10;49.70;99691.60;101863;1323;61209;-84
2022/11/21 03:17:34;;;;;;;;;;;;;;;17.10;49.68;99681.84;101761;1334;73754;-84
2022/11/21 03:19:59;;;;;;;;;;;;;;;17.09;49.68;99660.00;101788;1324;61345;-85
2022/11/21 03:22:25;;;;;;;;;;;;;;;17.10;49.65;99646.46;101800;1337;61412;-84
2022/11/21 03:24:50;;;;;;;;;;;;;;;17.09;49.71;99639.59;101769;1325;61330;-85
2022/11/21 03:27:16;;;;;;;;;;;;;;;17.09;49.63;99642.96;101823;1334;61391;-85
2022/11/21 03:29:41;;;;;;;;;;;;;;;17.08;49.61;99634.30;101743;1332;61278;-85
2022/11/21 03:32:07;;;;;;;;;;;;;;;17.08;49.59;99627.38;101783;1340;61468;-84
2022/11/21 03:34:32;;;;;;;;;;;;;;;17.08;49.59;99618.67;101806;1332;61357;-84
2022/11/21 03:36:57;;;;;;;;;;;;;;;17.08;49.56;99618.50;101806;1337;61327;-85
2022/11/21 03:39:23;;;;;;;;;;;;;;;17.08;49.58;99605.92;101845;1334;61451;-84
2022/11/21 03:41:48;;;;;;;;;;;;;;;17.08;49.57;99596.83;101826;1338;61441;-84
2022/11/21 03:44:14;;;;;;;;;;;;;;;17.08;49.61;99589.36;101861;1323;61796;-85
2022/11/21 03:46:40;;;;;;;;;;;;;;;17.07;49.56;99581.91;102061;1325;60936;-84
2022/11/21 03:49:06;;;;;;;;;;;;;;;17.07;49.58;99576.21;102064;1332;61308;-85
2022/11/21 03:51:32;;;;;;;;;;;;;;;17.07;49.46;99562.23;102137;1328;61315;-85
2022/11/21 03:53:58;;;;;;;;;;;;;;;17.07;49.54;99556.90;102117;1325;73434;-84
2022/11/21 03:56:23;;;;;;;;;;;;;;;17.07;49.52;99546.05;102084;1326;61314;-83
2022/11/21 03:58:49;;;;;;;;;;;;;;;17.06;49.51;99537.91;102051;1328;61408;-83
2022/11/21 04:01:14;;;;;;;;;;;;;;;17.06;49.56;99534.20;102087;1319;61392;-85
2022/11/21 04:03:40;;;;;;;;;;;;;;;17.06;49.60;99521.41;102108;1328;61496;-84
2022/11/21 04:06:06;;;;;;;;;;;;;;;17.06;49.59;99524.65;101929;1333;71362;-84
2022/11/21 04:08:31;;;;;;;;;;;;;;;17.05;49.50;99526.80;102075;1323;61353;-84
2022/11/21 04:10:56;;;;;;;;;;;;;;;17.05;49.60;99523.42;102086;1326;61413;-84
2022/11/21 04:13:22;;;;;;;;;;;;;;;17.05;49.53;99525.91;102086;1328;61839;-84
2022/11/21 04:15:47;;;;;;;;;;;;;;;17.05;49.38;99524.88;102096;1328;62496;-85
2022/11/21 04:18:13;;;;;;;;;;;;;;;17.05;49.40;99531.45;102125;1329;61383;-85
2022/11/21 04:20:38;;;;;;;;;;;;;;;17.05;49.37;99537.30;102126;1328;61375;-85
2022/11/21 04:23:05;;;;;;;;;;;;;;;17.05;49.45;99584.60;102088;1326;61289;-86
2022/11/21 04:25:30;;;;;;;;;;;;;;;17.06;49.48;99815.80;102104;1325;61171;-85
2022/11/21 04:27:56;;;;;;;;;;;;;;;17.07;49.40;99856.80;101968;1328;61348;-85
2022/11/21 04:30:22;;;;;;;;;;;;;;;17.07;49.50;99733.25;101981;1331;60376;-84
2022/11/21 04:32:49;;;;;;;;;;;;;;;17.06;49.42;99835.13;102036;1326;75620;-85
2022/11/21 04:35:14;;;;;;;;;;;;;;;17.07;49.40;99884.90;102019;1330;61482;-84
2022/11/21 04:37:40;;;;;;;;;;;;;;;17.07;49.40;99711.94;101947;1331;61368;-84
2022/11/21 04:40:05;;;;;;;;;;;;;;;17.07;49.46;99789.96;102081;1328;61419;-84
2022/11/21 04:42:31;;;;;;;;;;;;;;;17.06;49.31;99800.84;101920;1331;61321;-86
2022/11/21 04:44:57;;;;;;;;;;;;;;;17.06;49.28;99759.63;101996;1328;61359;-83
2022/11/21 04:47:23;;;;;;;;;;;;;;;17.05;49.33;99716.64;101968;1328;61205;-85
2022/11/21 04:49:48;;;;;;;;;;;;;;;17.05;49.33;99703.33;101969;1331;61406;-85
2022/11/21 04:52:37;;;;;;;;;;;;;;;17.04;49.29;99705.89;101949;1323;61287;-84
2022/11/21 04:55:02;;;;;;;;;;;;;;;17.04;49.34;99689.59;101741;1334;74396;-86
2022/11/21 04:57:28;;;;;;;;;;;;;;;17.03;49.18;99688.73;101720;1335;61361;-85
2022/11/21 04:59:56;;;;;;;;;;;;;;;17.02;49.27;99672.83;101635;1341;61378;-84
2022/11/21 05:02:21;;;;;;;;;;;;;;;17.01;49.26;99650.64;101709;1336;61320;-84
2022/11/21 05:04:46;;;;;;;;;;;;;;;17.00;49.16;99648.39;101741;1335;61333;-85
2022/11/21 05:07:12;;;;;;;;;;;;;;;17.00;49.28;99649.33;101741;1334;59872;-85
2022/11/21 05:09:37;;;;;;;;;;;;;;;16.98;49.15;99636.13;101758;1335;61341;-86
2022/11/21 05:14:47;;;;;;;;;;;;;;;16.96;49.04;99567.84;101821;1323;72564;-83
2022/11/21 05:17:12;;;;;;;;;;;;;;;16.95;49.11;99536.96;101766;1339;61336;-82
2022/11/21 05:19:38;;;;;;;;;;;;;;;16.95;49.01;99537.38;101757;1339;61321;-82
2022/11/21 05:22:03;;;;;;;;;;;;;;;16.95;48.94;99548.57;101783;1337;61356;-83
2022/11/21 05:24:29;;;;;;;;;;;;;;;16.96;49.02;99549.39;101845;1337;61476;-85
2022/11/21 05:26:54;;;;;;;;;;;;;;;16.96;48.86;99539.92;101857;1323;61440;-84
2022/11/21 05:29:19;;;;;;;;;;;;;;;16.98;48.86;99560.06;101783;1330;61419;-84
2022/11/21 05:31:45;;;;;;;;;;;;;;;16.98;48.86;99562.40;101885;1317;61447;-86
2022/11/21 05:34:10;;;;;;;;;;;;;;;16.99;48.74;99558.03;102095;1328;61460;-84
2022/11/21 05:36:36;;;;;;;;;;;;;;;17.00;48.74;99566.50;102190;1325;61266;-85
2022/11/21 05:39:01;;;;;;;;;;;;;;;17.01;48.66;99589.50;102084;1320;61255;-84
2022/11/21 05:41:27;;;;;;;;;;;;;;;17.02;48.70;99592.31;102081;1323;61337;-85
2022/11/21 05:43:53;;;;;;;;;;;;;;;17.02;48.49;99589.95;102024;1312;61338;-84
2022/11/21 05:46:19;;;;;;;;;;;;;;;17.03;48.57;99585.77;102001;1320;61293;-84
2022/11/21 05:48:47;;;;;;;;;;;;;;;17.04;48.48;99583.63;101965;1317;59646;-84
2022/11/21 05:51:13;;;;;;;;;;;;;;;17.04;48.41;99577.23;101535;1309;644652;-84
2022/11/21 05:53:39;;;;;;;;;;;;;;;17.00;48.31;99568.59;102043;1317;61407;-84
2022/11/21 05:56:05;;;;;;;;;;;;;;;16.99;48.38;99561.75;101877;1313;59911;-84
2022/11/21 05:58:31;;;;;;;;;;;;;;;16.93;48.16;99556.13;102046;1309;61271;-84
2022/11/21 06:00:57;;;;;;;;;;;;;;;16.84;48.08;99551.42;102036;1320;61383;-85
2022/11/21 06:03:31;;;;;;;;;;;;;;;16.83;48.12;99553.42;102576;1317;75229;-84
2022/11/21 06:06:07;;;;;;;;;;;;;;;16.87;48.19;99550.68;102034;1317;61451;-84
2022/11/21 06:08:36;;;;;;;;;;;;;;;16.89;48.26;99553.58;102054;1315;61280;-83
2022/11/21 06:11:01;;;;;;;;;;;;;;;16.88;48.23;99560.54;102095;1317;72712;-83
2022/11/21 06:13:27;;;;;;;;;;;;;;;16.88;48.25;99570.35;102024;1316;61424;-84
2022/11/21 06:16:01;;;;;;;;;;;;;;;16.90;48.37;99577.70;102024;1317;61344;-84
2022/11/21 06:18:28;;;;;;;;;;;;;;;16.90;48.37;99581.08;102086;1317;61136;-83
2022/11/21 06:20:53;;;;;;;;;;;;;;;16.91;48.40;99588.24;102265;1315;61357;-84
2022/11/21 06:23:18;;;;;;;;;;;;;;;16.94;48.34;99593.58;102027;1317;61311;-83
2022/11/21 06:25:44;;;;;;;;;;;;;;;16.97;48.36;99592.15;102057;1319;61315;-83
2022/11/21 06:28:10;;;;;;;;;;;;;;;16.98;48.38;99592.75;102048;1317;60159;-83
2022/11/21 06:30:35;;;;;;;;;;;;;;;17.00;48.41;99600.79;102003;1318;61435;-82
2022/11/21 06:33:04;;;;;;;;;;;;;;;17.01;48.35;99596.40;102011;1317;72623;-82
2022/11/21 06:35:30;;;;;;;;;;;;;;;17.04;48.37;99589.67;102068;1310;74785;-83
2022/11/21 06:37:55;;;;;;;;;;;;;;;17.05;48.38;99582.08;102122;1309;59624;-83
2022/11/21 06:40:21;;;;;;;;;;;;;;;17.07;48.36;99573.98;102111;1316;59388;-84
2022/11/21 06:42:46;;;;;;;;;;;;;;;17.08;48.34;99573.71;102012;1319;61316;-84
2022/11/21 06:45:12;;;;;;;;;;;;;;;17.10;48.22;99573.41;102134;1317;61313;-84
2022/11/21 06:47:37;;;;;;;;;;;;;;;17.11;48.41;99573.30;102119;1327;74729;-83
2022/11/21 06:50:03;;;;;;;;;;;;;;;17.13;48.23;99575.87;102080;1320;61352;-84
2022/11/21 06:52:31;;;;;;;;;;;;;;;17.14;48.20;99578.98;102161;1315;61330;-84
2022/11/21 06:54:56;;;;;;;;;;;;;;;17.14;48.19;99586.08;102079;1309;61338;-84
2022/11/21 06:57:22;;;;;;;;;;;;;;;17.09;48.17;99589.61;102173;1316;61331;-84
2022/11/21 06:59:47;;;;;;;;;;;;;;;17.08;48.17;99591.83;102112;1317;61334;-84
2022/11/21 07:02:12;;;;;;;;;;;;;;;17.09;48.35;99586.06;102173;1317;61333;-84
2022/11/21 07:04:38;;;;;;;;;;;;;;;17.09;48.48;99581.66;102181;1310;60073;-85
2022/11/21 07:07:03;;;;;;;;;;;;;;;17.10;48.59;99578.55;102183;1317;60300;-85
2022/11/21 07:09:29;;;;;;;;;;;;;;;17.11;48.52;99571.93;102128;1316;60072;-84
2022/11/21 07:11:54;;;;;;;;;;;;;;;17.12;48.52;99569.14;102132;1315;61338;-84
2022/11/21 07:14:19;;;;;;;;;;;;;;;17.13;48.60;99572.27;102132;1310;61364;-84
2022/11/21 07:16:45;;;;;;;;;;;;;;;17.14;48.46;99578.27;102085;1319;61520;-84
2022/11/21 07:19:10;;;;;;;;;;;;;;;17.15;48.47;99581.79;102178;1316;61388;-84
2022/11/21 07:21:36;;;;;;;;;;;;;;;17.17;48.48;99575.23;102062;1313;61359;-84
2022/11/21 07:24:01;;;;;;;;;;;;;;;17.18;48.38;99574.06;102147;1316;61361;-84
2022/11/21 07:26:27;;;;;;;;;;;;;;;17.19;48.53;99581.23;102160;1317;61807;-84
2022/11/21 07:28:52;;;;;;;;;;;;;;;17.20;48.54;99587.40;102037;1309;61355;-84
2022/11/21 07:31:17;;;;;;;;;;;;;;;17.20;48.39;99577.77;102094;1317;59480;-84
2022/11/21 07:33:44;;;;;;;;;;;;;;;17.21;48.42;99575.39;102016;1317;61329;-84
2022/11/21 07:36:13;;;;;;;;;;;;;;;17.23;48.55;99579.90;102096;1322;61278;-84
2022/11/21 07:38:40;;;;;;;;;;;;;;;17.23;48.59;99581.50;102147;1315;61344;-83
2022/11/21 07:41:05;;;;;;;;;;;;;;;17.24;48.50;99576.98;102095;1317;74830;-84
2022/11/21 07:43:31;;;;;;;;;;;;;;;17.23;48.61;99577.05;102011;1317;61377;-84
2022/11/21 07:45:56;;;;;;;;;;;;;;;17.23;48.52;99577.57;102102;1315;61520;-84
2022/11/21 07:48:21;;;;;;;;;;;;;;;17.24;48.46;99576.27;102094;1309;61327;-84
2022/11/21 07:50:47;;;;;;;;;;;;;;;17.23;48.56;99583.08;102243;1317;59336;-84
2022/11/21 07:53:12;;;;;;;;;;;;;;;17.23;48.54;99591.28;102001;1315;60212;-84
2022/11/21 07:55:38;;;;;;;;;;;;;;;17.23;48.43;99593.58;102038;1309;61370;-85
2022/11/21 07:58:06;;;;;;;;;;;;;;;17.21;48.47;99596.41;102068;1309;59578;-86
2022/11/21 08:00:32;;;;;;;;;;;;;;;17.14;48.27;99602.23;102086;1317;61235;-83
2022/11/21 08:02:57;;;;;;;;;;;;;;;16.98;48.21;99611.91;102111;1316;61353;-85
2022/11/21 08:05:23;;;;;;;;;;;;;;;16.88;48.30;99620.79;102050;1310;60033;-85
2022/11/21 08:07:48;;;;;;;;;;;;;;;16.81;48.21;99614.41;102185;1312;61179;-85
2022/11/21 08:10:14;;;;;;;;;;;;;;;16.63;48.24;99612.61;102217;1310;61314;-84
2022/11/21 08:12:39;;;;;;;;;;;;;;;16.56;48.51;99622.70;102197;1317;61803;-84
2022/11/21 08:15:06;;;;;;;;;;;;;;;16.60;48.68;99622.59;102222;1309;61350;-83
2022/11/21 08:17:31;;;;;;;;;;;;;;;16.67;48.64;99617.00;102095;1309;59537;-83
2022/11/21 08:19:59;;;;;;;;;;;;;;;16.71;48.84;99623.77;102099;1309;61359;-82
2022/11/21 08:22:25;;;;;;;;;;;;;;;16.76;48.86;99634.96;102184;1317;59856;-83
2022/11/21 08:24:52;;;;;;;;;;;;;;;16.81;48.73;99630.71;102041;1319;61353;-83
2022/11/21 08:27:20;;;;;;;;;;;;;;;16.86;48.77;99636.41;101964;1318;61223;-83
2022/11/21 08:29:45;;;;;;;;;;;;;;;16.90;48.72;99635.98;102792;1329;59881;-83
2022/11/21 08:32:11;;;;;;;;;;;;;;;16.95;48.87;99636.91;102863;1324;59477;-84
2022/11/21 08:34:36;;;;;;;;;;;;;;;16.98;48.74;99646.09;102244;1325;61423;-81
2022/11/21 08:37:01;;;;;;;;;;;;;;;17.01;48.76;99646.40;101983;1315;61419;-84
2022/11/21 08:39:29;;;;;;;;;;;;;;;17.03;48.75;99652.45;102013;1319;61959;-83
2022/11/21 08:42:04;;;;;;;;;;;;;;;17.05;48.85;99645.55;102773;1328;59864;-83
2022/11/21 08:44:30;;;;;;;;;;;;;;;17.07;48.76;99642.92;101935;1320;61628;-82
2022/11/21 08:46:55;;;;;;;;;;;;;;;17.09;48.74;99649.36;102078;1317;60675;-83
2022/11/21 08:49:21;;;;;;;;;;;;;;;17.11;48.72;99647.83;101930;1322;60159;-82
2022/11/21 08:51:48;;;;;;;;;;;;;;;17.12;48.65;99654.84;101901;1320;61269;-83
2022/11/21 08:54:14;;;;;;;;;;;;;;;17.13;48.63;99660.08;101970;1319;61281;-83
2022/11/21 08:56:41;;;;;;;;;;;;;;;17.14;48.59;99666.06;102012;1313;61332;-83
2022/11/21 08:59:06;;;;;;;;;;;;;;;17.15;48.44;99674.54;101905;1311;62347;-83
2022/11/21 09:01:32;;;;;;;;;;;;;;;17.15;48.49;99681.98;101928;1317;61648;-83
2022/11/21 09:03:57;;;;;;;;;;;;;;;17.17;48.50;99681.36;102071;1312;61319;-83
2022/11/21 09:06:22;;;;;;;;;;;;;;;17.19;48.49;99688.65;102029;1319;61343;-85
2022/11/21 09:08:48;;;;;;;;;;;;;;;17.20;48.57;99694.41;102057;1320;61239;-84
2022/11/21 09:11:14;;;;;;;;;;;;;;;17.20;48.67;99707.23;102127;1315;61449;-85
2022/11/21 09:13:40;;;;;;;;;;;;;;;17.20;48.58;99713.50;102201;1321;59369;-84
2022/11/21 09:18:51;;;;;;;;;;;;;;;17.18;48.82;99712.00;102073;1317;61253;-83
2022/11/21 09:21:16;;;;;;;;;;;;;;;17.20;48.83;99714.04;102030;1312;60655;-83
2022/11/21 09:23:42;;;;;;;;;;;;;;;17.20;48.79;99712.55;101990;1309;61304;-83
2022/11/21 09:26:07;;;;;;;;;;;;;;;17.20;48.89;99717.75;102112;1315;61352;-83
2022/11/21 09:28:34;;;;;;;;;;;;;;;17.21;48.90;99728.16;102144;1317;59498;-83
2022/11/21 09:31:03;;;;;;;;;;;;;;;17.22;49.01;99728.02;102111;1325;61785;-83
2022/11/21 09:33:28;;;;;;;;;;;;;;;17.24;48.97;99724.39;102117;1317;61588;-84
2022/11/21 09:35:54;;;;;;;;;;;;;;;17.25;49.06;99715.36;102034;1312;61383;-83
2022/11/21 09:38:19;;;;;;;;;;;;;;;17.27;49.11;99716.34;102068;1318;61649;-83
2022/11/21 09:40:45;;;;;;;;;;;;;;;17.28;49.07;99721.45;102243;1314;61356;-83
2022/11/21 09:43:20;;;;;;;;;;;;;;;17.29;49.08;99725.27;102053;1310;72652;-83
2022/11/21 09:45:46;;;;;;;;;;;;;;;17.29;48.97;99720.98;102008;1316;74529;-83
2022/11/21 09:48:23;;;;;;;;;;;;;;;17.30;49.13;99721.67;102004;1312;61673;-83
2022/11/21 09:50:50;;;;;;;;;;;;;;;17.30;49.14;99719.00;102136;1312;60725;-83
2022/11/21 09:53:16;;;;;;;;;;;;;;;17.31;49.14;99723.19;101997;1318;72719;-84
2022/11/21 09:56:02;;;;;;;;;;;;;;;17.33;49.23;99718.26;101997;1315;61038;-84
2022/11/21 09:58:30;;;;;;;;;;;;;;;17.36;49.14;99708.78;102079;1317;61320;-82
2022/11/21 10:00:55;;;;;;;;;;;;;;;17.39;49.29;99712.30;102900;1319;60486;-84
2022/11/21 10:03:21;;;;;;;;;;;;;;;17.42;49.39;99712.78;102402;1319;61964;-85
2022/11/21 10:05:54;;;;;;;;;;;;;;;17.40;49.41;99711.52;102803;1325;60462;-84
2022/11/21 10:08:26;;;;;;;;;;;;;;;17.30;49.17;99714.33;102796;1320;60497;-83
2022/11/21 10:10:53;;;;;;;;;;;;;;;17.24;49.39;99721.37;102745;1323;60534;-84
2022/11/21 10:13:39;;;;;;;;;;;;;;;17.12;49.19;99722.42;102787;1328;72819;-84
2022/11/21 10:16:23;;;;;;;;;;;;;;;17.03;49.39;99722.13;102591;1333;73720;-83
2022/11/21 10:18:54;;;;;;;;;;;;;;;17.04;49.28;99719.39;102956;1324;61154;-84
2022/11/21 10:21:23;;;;;;;;;;;;;;;17.07;49.22;99717.61;102996;1325;61332;-83
2022/11/21 10:24:01;;;;;;;;;;;;;;;17.11;49.53;99711.83;103032;1333;72602;-83
2022/11/21 10:26:26;;;;;;;;;;;;;;;17.15;49.53;99717.40;103064;1332;74788;-83
2022/11/21 10:28:52;;;;;;;;;;;;;;;17.19;49.48;99720.85;103066;1328;58950;-83
2022/11/21 10:31:17;;;;;;;;;;;;;;;17.23;49.48;99717.17;102453;1317;60124;-83
2022/11/21 10:33:43;;;;;;;;;;;;;;;17.26;49.44;99717.63;102043;1316;61307;-83
2022/11/21 10:36:28;;;;;;;;;;;;;;;17.29;49.35;99724.36;102130;1317;61276;-83
2022/11/21 10:39:02;;;;;;;;;;;;;;;17.31;49.41;99730.96;102251;1317;74619;-83
2022/11/21 10:41:46;;;;;;;;;;;;;;;17.35;49.44;99738.36;102609;1315;60021;-83
2022/11/21 10:47:01;;;;;;;;;;;;;;;17.39;49.50;99752.68;102127;1317;72555;-84
2022/11/21 10:49:28;;;;;;;;;;;;;;;17.40;49.55;99757.75;102115;1316;75782;-84
2022/11/21 10:51:59;;;;;;;;;;;;;;;17.41;49.55;99750.74;102124;1317;61329;-85
2022/11/21 10:54:34;;;;;;;;;;;;;;;17.41;49.52;99749.65;102202;1324;60160;-84
2022/11/21 10:57:15;;;;;;;;;;;;;;;17.40;49.56;99742.08;102207;1323;71640;-84
2022/11/21 10:59:41;;;;;;;;;;;;;;;17.38;49.54;99733.13;101957;1325;74590;-84
2022/11/21 11:02:12;;;;;;;;;;;;;;;17.37;49.49;99737.49;102122;1310;61280;-85
2022/11/21 11:04:38;;;;;;;;;;;;;;;17.37;49.55;99748.38;102236;1310;61319;-84
2022/11/21 11:07:26;;;;;;;;;;;;;;;17.32;49.45;99746.75;102226;1316;59997;-83
2022/11/21 11:09:51;;;;;;;;;;;;;;;17.26;49.63;99738.10;102247;1310;75688;-85
2022/11/21 11:12:20;;;;;;;;;;;;;;;17.25;49.61;99738.55;102175;1315;59490;-82
2022/11/21 11:14:52;;;;;;;;;;;;;;;17.26;49.83;99736.52;101909;1309;61182;-84
2022/11/21 11:17:37;;;;;;;;;;;;;;;17.30;49.86;99738.74;102170;1309;72398;-83
2022/11/21 11:20:10;;;;;;;;;;;;;;;17.29;49.94;99748.08;102187;1317;74399;-83
2022/11/21 11:22:35;;;;;;;;;;;;;;;17.27;49.89;99738.21;102144;1317;61554;-83
2022/11/21 11:25:02;;;;;;;;;;;;;;;17.25;49.98;99732.98;102213;1318;59445;-84
2022/11/21 11:27:28;;;;;;;;;;;;;;;17.25;49.89;99728.95;102070;1316;61349;-84
2022/11/21 11:29:53;;;;;;;;;;;;;;;17.25;49.90;99718.99;102036;1311;61338;-84
2022/11/21 11:32:18;;;;;;;;;;;;;;;17.24;49.85;99711.25;102052;1317;61325;-84
2022/11/21 11:34:50;;;;;;;;;;;;;;;17.25;49.80;99713.45;102147;1317;61375;-83
2022/11/21 11:37:58;;;;;;;;;;;;;;;17.27;49.75;99718.48;102216;1322;61301;-84
2022/11/21 11:40:26;;;;;;;;;;;;;;;17.29;49.96;99726.33;102063;1317;72777;-83
2022/11/21 11:48:38;;;;;;;;;;;;;;;17.36;49.97;99737.55;102112;1315;62577;-83
2022/11/21 11:51:19;;;;;;;;;;;;;;;17.38;49.99;99738.13;102204;1313;72670;-84
2022/11/21 11:53:45;;;;;;;;;;;;;;;17.40;50.01;99742.98;102060;1310;74691;-85
2022/11/21 11:56:37;;;;;;;;;;;;;;;17.42;50.12;99746.05;102183;1316;59604;-83
2022/11/21 11:59:02;;;;;;;;;;;;;;;17.39;50.17;99740.20;102091;1310;61236;-85
2022/11/21 12:01:36;;;;;;;;;;;;;;;17.36;50.14;99743.60;102188;1317;59377;-83
2022/11/21 12:04:04;;;;;;;;;;;;;;;17.30;50.04;99743.04;102156;1317;76036;-83
2022/11/21 12:06:32;;;;;;;;;;;;;;;17.17;50.06;99747.27;101737;1316;61067;-82
2022/11/21 12:09:17;;;;;;;;;;;;;;;17.11;50.04;99747.20;102584;1325;61094;-83
2022/11/21 12:17:13;;;;;;;;;;;;;;;17.12;50.23;99752.10;102367;1327;61773;-84
2022/11/21 12:19:38;;;;;;;;;;;;;;;17.13;50.36;99747.05;102201;1324;59490;-84
2022/11/21 12:22:05;;;;;;;;;;;;;;;17.12;50.22;99741.58;102156;1313;59881;-84
2022/11/21 12:24:32;;;;;;;;;;;;;;;17.11;50.30;99744.89;102207;1332;59430;-84
2022/11/21 12:27:01;;;;;;;;;;;;;;;17.12;50.38;99753.51;101965;1332;61406;-84
2022/11/21 12:29:29;;;;;;;;;;;;;;;17.12;50.28;99753.31;101753;1316;61428;-83
2022/11/21 12:32:14;;;;;;;;;;;;;;;17.12;50.48;99754.43;101510;1320;72533;-82
2022/11/21 12:34:50;;;;;;;;;;;;;;;17.15;50.50;99744.39;101896;1316;75614;-82
2022/11/21 12:37:29;;;;;;;;;;;;;;;17.27;50.76;99741.27;102090;1312;62247;-82
2022/11/21 12:39:54;;;;;;;;;;;;;;;17.35;50.66;99744.95;102163;1317;61551;-82
2022/11/21 12:45:46;;;;;;;;;;;;;;;17.39;50.76;99748.36;101919;1328;74799;-84
2022/11/21 12:56:35;;;;;;;;;;;;;;;17.46;50.49;99753.94;102020;1330;75341;-84
2022/11/21 12:59:01;;;;;;;;;;;;;;;17.44;50.56;99755.29;102068;1318;60879;-84
2022/11/21 13:01:29;;;;;;;;;;;;;;;17.43;50.56;99755.75;101977;1321;62161;-84
2022/11/21 13:03:57;;;;;;;;;;;;;;;17.45;50.59;99756.90;101890;1317;62210;-84
2022/11/21 13:06:42;;;;;;;;;;;;;;;17.47;50.51;99752.64;102036;1317;76350;-85
2022/11/21 13:09:08;;;;;;;;;;;;;;;17.50;50.38;99760.59;102045;1326;62092;-84